sensor_id;sensor_type;location;lat;lon;timestamp;P1;durP1;ratioP1;P2;durP2;ratioP2
38581;SDS011;24349;53.720;10.014;2023-02-12T00:00:04;23.05;;;11.00;;
38581;SDS011;24349;53.720;10.014;2023-02-12T00:02:32;22.75;;;10.88;;
38581;SDS011;24349;53.720;10.014;2023-02-12T00:04:57;30.17;;;10.80;;
38581;SDS011;24349;53.720;10.014;2023-02-12T00:07:23;21.23;;;8.82;;
38581;SDS011;24349;53.720;10.014;2023-02-12T00:09:48;22.75;;;9.48;;
38581;SDS011;24349;53.720;10.014;2023-02-12T00:12:14;22.17;;;9.52;;
38581;SDS011;24349;53.720;10.014;2023-02-12T00:14:40;20.95;;;9.00;;
38581;SDS011;24349;53.720;10.014;2023-02-12T00:17:06;20.35;;;8.77;;
38581;SDS011;24349;53.720;10.014;2023-02-12T00:19:32;16.20;;;8.00;;
38581;SDS011;24349;53.720;10.014;2023-02-12T00:21:57;20.17;;;9.32;;
38581;SDS011;24349;53.720;10.014;2023-02-12T00:24:23;23.15;;;9.50;;
38581;SDS011;24349;53.720;10.014;2023-02-12T00:26:49;24.35;;;10.52;;
38581;SDS011;24349;53.720;10.014;2023-02-12T00:29:15;22.10;;;9.75;;
38581;SDS011;24349;53.720;10.014;2023-02-12T00:31:40;20.30;;;9.35;;
38581;SDS011;24349;53.720;10.014;2023-02-12T00:34:06;24.83;;;10.38;;
38581;SDS011;24349;53.720;10.014;2023-02-12T00:36:33;27.58;;;10.55;;
38581;SDS011;24349;53.720;10.014;2023-02-12T00:38:59;23.83;;;10.38;;
38581;SDS011;24349;53.720;10.014;2023-02-12T00:41:25;19.00;;;9.32;;
38581;SDS011;24349;53.720;10.014;2023-02-12T00:43:51;21.52;;;9.30;;
38581;SDS011;24349;53.720;10.014;2023-02-12T00:46:17;24.30;;;10.20;;
38581;SDS011;24349;53.720;10.014;2023-02-12T00:48:43;25.60;;;10.88;;
38581;SDS011;24349;53.720;10.014;2023-02-12T00:51:08;19.90;;;9.25;;
38581;SDS011;24349;53.720;10.014;2023-02-12T00:53:34;20.55;;;9.23;;
38581;SDS011;24349;53.720;10.014;2023-02-12T00:56:00;19.35;;;8.55;;
38581;SDS011;24349;53.720;10.014;2023-02-12T00:58:26;17.83;;;6.93;;
38581;SDS011;24349;53.720;10.014;2023-02-12T01:00:52;14.07;;;6.35;;
38581;SDS011;24349;53.720;10.014;2023-02-12T01:03:18;15.02;;;5.63;;
38581;SDS011;24349;53.720;10.014;2023-02-12T01:05:44;10.88;;;4.57;;
38581;SDS011;24349;53.720;10.014;2023-02-12T01:08:13;9.02;;;4.13;;
38581;SDS011;24349;53.720;10.014;2023-02-12T01:10:40;9.00;;;3.85;;
38581;SDS011;24349;53.720;10.014;2023-02-12T01:13:09;8.95;;;4.15;;
38581;SDS011;24349;53.720;10.014;2023-02-12T01:15:37;9.68;;;3.95;;
38581;SDS011;24349;53.720;10.014;2023-02-12T01:18:02;13.30;;;4.30;;
38581;SDS011;24349;53.720;10.014;2023-02-12T01:20:28;9.98;;;3.40;;
38581;SDS011;24349;53.720;10.014;2023-02-12T01:22:54;15.43;;;4.22;;
38581;SDS011;24349;53.720;10.014;2023-02-12T01:25:19;13.80;;;4.15;;
38581;SDS011;24349;53.720;10.014;2023-02-12T01:27:45;27.90;;;6.15;;
38581;SDS011;24349;53.720;10.014;2023-02-12T01:30:11;13.70;;;4.97;;
38581;SDS011;24349;53.720;10.014;2023-02-12T01:32:37;12.27;;;5.43;;
38581;SDS011;24349;53.720;10.014;2023-02-12T01:35:03;15.45;;;5.53;;
38581;SDS011;24349;53.720;10.014;2023-02-12T01:37:29;14.93;;;5.75;;
38581;SDS011;24349;53.720;10.014;2023-02-12T01:39:55;19.45;;;6.03;;
38581;SDS011;24349;53.720;10.014;2023-02-12T01:42:21;15.43;;;6.20;;
38581;SDS011;24349;53.720;10.014;2023-02-12T01:47:41;17.17;;;7.03;;
38581;SDS011;24349;53.720;10.014;2023-02-12T01:50:09;21.33;;;8.63;;
38581;SDS011;24349;53.720;10.014;2023-02-12T01:52:38;17.95;;;8.27;;
38581;SDS011;24349;53.720;10.014;2023-02-12T01:55:07;21.75;;;9.43;;
38581;SDS011;24349;53.720;10.014;2023-02-12T01:57:36;24.08;;;10.30;;
38581;SDS011;24349;53.720;10.014;2023-02-12T02:00:06;24.27;;;10.93;;
38581;SDS011;24349;53.720;10.014;2023-02-12T02:02:35;21.08;;;11.10;;
38581;SDS011;24349;53.720;10.014;2023-02-12T02:05:02;19.13;;;10.00;;
38581;SDS011;24349;53.720;10.014;2023-02-12T02:07:28;23.35;;;10.82;;
38581;SDS011;24349;53.720;10.014;2023-02-12T02:09:55;26.85;;;12.63;;
38581;SDS011;24349;53.720;10.014;2023-02-12T02:12:21;23.27;;;11.52;;
38581;SDS011;24349;53.720;10.014;2023-02-12T02:15:14;19.52;;;10.02;;
38581;SDS011;24349;53.720;10.014;2023-02-12T02:20:11;28.23;;;14.52;;
38581;SDS011;24349;53.720;10.014;2023-02-12T02:25:14;24.83;;;13.55;;
38581;SDS011;24349;53.720;10.014;2023-02-12T02:30:30;25.13;;;14.20;;
38581;SDS011;24349;53.720;10.014;2023-02-12T02:33:21;26.08;;;13.70;;
38581;SDS011;24349;53.720;10.014;2023-02-12T02:36:16;24.85;;;13.55;;
38581;SDS011;24349;53.720;10.014;2023-02-12T02:44:21;24.25;;;13.57;;
38581;SDS011;24349;53.720;10.014;2023-02-12T02:46:53;25.15;;;13.13;;
38581;SDS011;24349;53.720;10.014;2023-02-12T02:49:31;25.30;;;13.93;;
38581;SDS011;24349;53.720;10.014;2023-02-12T02:52:05;24.40;;;13.05;;
38581;SDS011;24349;53.720;10.014;2023-02-12T02:54:39;21.63;;;11.57;;
38581;SDS011;24349;53.720;10.014;2023-02-12T02:57:15;22.23;;;11.85;;
38581;SDS011;24349;53.720;10.014;2023-02-12T02:59:46;19.60;;;10.18;;
38581;SDS011;24349;53.720;10.014;2023-02-12T03:02:19;20.77;;;10.75;;
38581;SDS011;24349;53.720;10.014;2023-02-12T03:04:54;23.42;;;11.27;;
38581;SDS011;24349;53.720;10.014;2023-02-12T03:07:25;23.65;;;11.45;;
38581;SDS011;24349;53.720;10.014;2023-02-12T03:09:58;26.02;;;12.50;;
38581;SDS011;24349;53.720;10.014;2023-02-12T03:12:34;20.52;;;10.10;;
38581;SDS011;24349;53.720;10.014;2023-02-12T03:15:07;21.52;;;11.45;;
38581;SDS011;24349;53.720;10.014;2023-02-12T03:17:57;23.20;;;12.15;;
38581;SDS011;24349;53.720;10.014;2023-02-12T03:20:26;22.60;;;12.98;;
38581;SDS011;24349;53.720;10.014;2023-02-12T03:22:57;19.42;;;11.13;;
38581;SDS011;24349;53.720;10.014;2023-02-12T03:25:43;21.17;;;11.20;;
38581;SDS011;24349;53.720;10.014;2023-02-12T03:30:45;18.33;;;9.48;;
38581;SDS011;24349;53.720;10.014;2023-02-12T03:36:06;14.90;;;6.85;;
38581;SDS011;24349;53.720;10.014;2023-02-12T03:38:39;14.98;;;7.18;;
38581;SDS011;24349;53.720;10.014;2023-02-12T03:43:54;15.27;;;6.45;;
38581;SDS011;24349;53.720;10.014;2023-02-12T03:46:41;17.45;;;6.55;;
38581;SDS011;24349;53.720;10.014;2023-02-12T03:49:23;14.50;;;6.45;;
38581;SDS011;24349;53.720;10.014;2023-02-12T03:52:03;17.30;;;6.95;;
38581;SDS011;24349;53.720;10.014;2023-02-12T03:54:29;13.55;;;5.97;;
38581;SDS011;24349;53.720;10.014;2023-02-12T03:59:39;15.43;;;6.70;;
38581;SDS011;24349;53.720;10.014;2023-02-12T04:02:05;20.77;;;8.43;;
38581;SDS011;24349;53.720;10.014;2023-02-12T04:04:31;23.75;;;8.63;;
38581;SDS011;24349;53.720;10.014;2023-02-12T04:06:57;17.70;;;7.45;;
38581;SDS011;24349;53.720;10.014;2023-02-12T04:09:24;25.30;;;10.40;;
38581;SDS011;24349;53.720;10.014;2023-02-12T04:14:38;29.98;;;10.00;;
38581;SDS011;24349;53.720;10.014;2023-02-12T04:17:17;22.98;;;8.20;;
38581;SDS011;24349;53.720;10.014;2023-02-12T04:20:07;19.38;;;7.88;;
38581;SDS011;24349;53.720;10.014;2023-02-12T04:22:54;31.73;;;8.80;;
38581;SDS011;24349;53.720;10.014;2023-02-12T04:34:04;32.88;;;7.32;;
38581;SDS011;24349;53.720;10.014;2023-02-12T04:36:51;39.47;;;9.18;;
38581;SDS011;24349;53.720;10.014;2023-02-12T04:39:31;41.22;;;6.80;;
38581;SDS011;24349;53.720;10.014;2023-02-12T04:42:00;32.22;;;6.40;;
38581;SDS011;24349;53.720;10.014;2023-02-12T04:44:28;33.08;;;6.43;;
38581;SDS011;24349;53.720;10.014;2023-02-12T04:46:56;39.85;;;7.40;;
38581;SDS011;24349;53.720;10.014;2023-02-12T04:49:23;44.22;;;7.03;;
38581;SDS011;24349;53.720;10.014;2023-02-12T04:51:49;51.40;;;6.57;;
38581;SDS011;24349;53.720;10.014;2023-02-12T04:54:15;31.95;;;7.10;;
38581;SDS011;24349;53.720;10.014;2023-02-12T04:56:43;32.53;;;6.18;;
38581;SDS011;24349;53.720;10.014;2023-02-12T04:59:09;40.17;;;8.35;;
38581;SDS011;24349;53.720;10.014;2023-02-12T05:01:36;51.65;;;7.78;;
38581;SDS011;24349;53.720;10.014;2023-02-12T05:04:02;59.38;;;8.93;;
38581;SDS011;24349;53.720;10.014;2023-02-12T05:06:29;81.35;;;9.32;;
38581;SDS011;24349;53.720;10.014;2023-02-12T05:08:55;78.82;;;8.48;;
38581;SDS011;24349;53.720;10.014;2023-02-12T05:11:21;44.65;;;7.57;;
38581;SDS011;24349;53.720;10.014;2023-02-12T05:13:48;26.92;;;7.68;;
38581;SDS011;24349;53.720;10.014;2023-02-12T05:16:14;60.63;;;8.02;;
38581;SDS011;24349;53.720;10.014;2023-02-12T05:18:40;35.03;;;7.93;;
38581;SDS011;24349;53.720;10.014;2023-02-12T05:21:05;22.52;;;7.93;;
38581;SDS011;24349;53.720;10.014;2023-02-12T05:23:32;26.90;;;8.30;;
38581;SDS011;24349;53.720;10.014;2023-02-12T05:26:00;33.25;;;8.43;;
38581;SDS011;24349;53.720;10.014;2023-02-12T05:28:27;38.90;;;8.77;;
38581;SDS011;24349;53.720;10.014;2023-02-12T05:30:53;53.25;;;8.63;;
38581;SDS011;24349;53.720;10.014;2023-02-12T05:33:19;51.13;;;9.80;;
38581;SDS011;24349;53.720;10.014;2023-02-12T05:35:45;26.55;;;7.90;;
38581;SDS011;24349;53.720;10.014;2023-02-12T05:38:10;35.10;;;8.07;;
38581;SDS011;24349;53.720;10.014;2023-02-12T05:40:36;59.45;;;9.48;;
38581;SDS011;24349;53.720;10.014;2023-02-12T05:43:04;40.00;;;9.13;;
38581;SDS011;24349;53.720;10.014;2023-02-12T05:45:31;33.28;;;9.13;;
38581;SDS011;24349;53.720;10.014;2023-02-12T05:47:57;40.72;;;9.05;;
38581;SDS011;24349;53.720;10.014;2023-02-12T05:50:22;32.33;;;9.18;;
38581;SDS011;24349;53.720;10.014;2023-02-12T05:52:48;37.58;;;8.98;;
38581;SDS011;24349;53.720;10.014;2023-02-12T05:55:14;70.95;;;10.23;;
38581;SDS011;24349;53.720;10.014;2023-02-12T05:57:39;22.67;;;8.27;;
38581;SDS011;24349;53.720;10.014;2023-02-12T06:00:06;18.50;;;8.40;;
38581;SDS011;24349;53.720;10.014;2023-02-12T06:02:33;58.25;;;9.68;;
38581;SDS011;24349;53.720;10.014;2023-02-12T06:04:59;28.55;;;8.85;;
38581;SDS011;24349;53.720;10.014;2023-02-12T06:07:25;43.70;;;9.55;;
38581;SDS011;24349;53.720;10.014;2023-02-12T06:09:50;26.52;;;8.95;;
38581;SDS011;24349;53.720;10.014;2023-02-12T06:12:16;40.55;;;10.85;;
38581;SDS011;24349;53.720;10.014;2023-02-12T06:14:41;36.45;;;9.25;;
38581;SDS011;24349;53.720;10.014;2023-02-12T06:17:08;25.92;;;9.35;;
38581;SDS011;24349;53.720;10.014;2023-02-12T06:19:34;36.40;;;10.10;;
38581;SDS011;24349;53.720;10.014;2023-02-12T06:22:01;34.63;;;10.20;;
38581;SDS011;24349;53.720;10.014;2023-02-12T06:24:26;44.30;;;10.18;;
38581;SDS011;24349;53.720;10.014;2023-02-12T06:26:52;27.20;;;10.80;;
38581;SDS011;24349;53.720;10.014;2023-02-12T06:29:18;38.17;;;10.27;;
38581;SDS011;24349;53.720;10.014;2023-02-12T06:31:46;46.10;;;11.00;;
38581;SDS011;24349;53.720;10.014;2023-02-12T06:34:12;23.65;;;10.55;;
38581;SDS011;24349;53.720;10.014;2023-02-12T06:36:39;39.17;;;9.95;;
38581;SDS011;24349;53.720;10.014;2023-02-12T06:39:06;71.82;;;14.07;;
38581;SDS011;24349;53.720;10.014;2023-02-12T06:41:32;44.85;;;11.23;;
38581;SDS011;24349;53.720;10.014;2023-02-12T06:43:58;58.20;;;13.07;;
38581;SDS011;24349;53.720;10.014;2023-02-12T06:46:24;52.15;;;12.07;;
38581;SDS011;24349;53.720;10.014;2023-02-12T06:48:53;48.67;;;13.23;;
38581;SDS011;24349;53.720;10.014;2023-02-12T06:51:20;56.70;;;14.27;;
38581;SDS011;24349;53.720;10.014;2023-02-12T06:53:47;50.22;;;12.63;;
38581;SDS011;24349;53.720;10.014;2023-02-12T06:56:14;61.95;;;14.25;;
38581;SDS011;24349;53.720;10.014;2023-02-12T06:58:41;88.63;;;15.88;;
38581;SDS011;24349;53.720;10.014;2023-02-12T07:01:09;43.35;;;12.43;;
38581;SDS011;24349;53.720;10.014;2023-02-12T07:03:37;42.40;;;12.55;;
38581;SDS011;24349;53.720;10.014;2023-02-12T07:06:04;31.60;;;11.95;;
38581;SDS011;24349;53.720;10.014;2023-02-12T07:08:30;24.02;;;11.57;;
38581;SDS011;24349;53.720;10.014;2023-02-12T07:10:56;46.50;;;13.68;;
38581;SDS011;24349;53.720;10.014;2023-02-12T07:13:21;60.03;;;15.43;;
38581;SDS011;24349;53.720;10.014;2023-02-12T07:15:47;66.88;;;15.70;;
38581;SDS011;24349;53.720;10.014;2023-02-12T07:18:13;32.38;;;13.48;;
38581;SDS011;24349;53.720;10.014;2023-02-12T07:20:38;44.28;;;14.48;;
38581;SDS011;24349;53.720;10.014;2023-02-12T07:23:04;42.22;;;12.32;;
38581;SDS011;24349;53.720;10.014;2023-02-12T07:25:29;59.60;;;15.43;;
38581;SDS011;24349;53.720;10.014;2023-02-12T07:27:55;36.58;;;13.88;;
38581;SDS011;24349;53.720;10.014;2023-02-12T07:30:21;66.03;;;15.70;;
38581;SDS011;24349;53.720;10.014;2023-02-12T07:32:46;41.50;;;14.77;;
38581;SDS011;24349;53.720;10.014;2023-02-12T07:35:12;51.13;;;15.25;;
38581;SDS011;24349;53.720;10.014;2023-02-12T07:37:38;32.97;;;13.93;;
38581;SDS011;24349;53.720;10.014;2023-02-12T07:40:03;37.88;;;14.55;;
38581;SDS011;24349;53.720;10.014;2023-02-12T07:42:29;95.28;;;17.65;;
38581;SDS011;24349;53.720;10.014;2023-02-12T07:44:55;64.13;;;16.80;;
38581;SDS011;24349;53.720;10.014;2023-02-12T07:47:21;48.75;;;16.15;;
38581;SDS011;24349;53.720;10.014;2023-02-12T07:49:46;71.93;;;17.52;;
38581;SDS011;24349;53.720;10.014;2023-02-12T07:52:12;45.17;;;14.75;;
38581;SDS011;24349;53.720;10.014;2023-02-12T07:54:37;61.28;;;15.45;;
38581;SDS011;24349;53.720;10.014;2023-02-12T07:57:03;50.92;;;15.75;;
38581;SDS011;24349;53.720;10.014;2023-02-12T07:59:29;43.13;;;15.35;;
38581;SDS011;24349;53.720;10.014;2023-02-12T08:01:54;46.15;;;15.38;;
38581;SDS011;24349;53.720;10.014;2023-02-12T08:04:21;46.53;;;15.63;;
38581;SDS011;24349;53.720;10.014;2023-02-12T08:06:48;39.13;;;15.30;;
38581;SDS011;24349;53.720;10.014;2023-02-12T08:09:20;35.28;;;15.38;;
38581;SDS011;24349;53.720;10.014;2023-02-12T08:11:48;42.85;;;14.65;;
38581;SDS011;24349;53.720;10.014;2023-02-12T08:14:15;41.40;;;15.48;;
38581;SDS011;24349;53.720;10.014;2023-02-12T08:16:44;43.45;;;16.05;;
38581;SDS011;24349;53.720;10.014;2023-02-12T08:19:10;50.72;;;16.35;;
38581;SDS011;24349;53.720;10.014;2023-02-12T08:21:36;70.88;;;17.63;;
38581;SDS011;24349;53.720;10.014;2023-02-12T08:24:02;67.22;;;18.10;;
38581;SDS011;24349;53.720;10.014;2023-02-12T08:26:29;38.95;;;14.95;;
38581;SDS011;24349;53.720;10.014;2023-02-12T08:28:59;61.03;;;17.25;;
38581;SDS011;24349;53.720;10.014;2023-02-12T08:31:27;50.05;;;16.83;;
38581;SDS011;24349;53.720;10.014;2023-02-12T08:33:55;47.53;;;16.33;;
38581;SDS011;24349;53.720;10.014;2023-02-12T08:36:22;36.53;;;14.10;;
38581;SDS011;24349;53.720;10.014;2023-02-12T08:38:53;39.50;;;14.68;;
38581;SDS011;24349;53.720;10.014;2023-02-12T08:41:22;40.35;;;15.02;;
38581;SDS011;24349;53.720;10.014;2023-02-12T08:43:54;36.55;;;15.27;;
38581;SDS011;24349;53.720;10.014;2023-02-12T08:46:22;29.88;;;12.70;;
38581;SDS011;24349;53.720;10.014;2023-02-12T08:48:59;32.33;;;13.15;;
38581;SDS011;24349;53.720;10.014;2023-02-12T08:51:27;34.95;;;13.10;;
38581;SDS011;24349;53.720;10.014;2023-02-12T08:53:56;33.38;;;11.85;;
38581;SDS011;24349;53.720;10.014;2023-02-12T08:56:24;26.50;;;12.00;;
38581;SDS011;24349;53.720;10.014;2023-02-12T08:58:50;27.13;;;11.60;;
38581;SDS011;24349;53.720;10.014;2023-02-12T09:01:18;42.38;;;15.02;;
38581;SDS011;24349;53.720;10.014;2023-02-12T09:03:46;43.25;;;14.15;;
38581;SDS011;24349;53.720;10.014;2023-02-12T09:06:12;36.08;;;12.80;;
38581;SDS011;24349;53.720;10.014;2023-02-12T09:08:39;29.80;;;12.50;;
38581;SDS011;24349;53.720;10.014;2023-02-12T09:11:05;32.13;;;12.70;;
38581;SDS011;24349;53.720;10.014;2023-02-12T09:13:33;25.45;;;11.73;;
38581;SDS011;24349;53.720;10.014;2023-02-12T09:16:00;25.35;;;10.65;;
38581;SDS011;24349;53.720;10.014;2023-02-12T09:18:27;28.67;;;11.43;;
38581;SDS011;24349;53.720;10.014;2023-02-12T09:20:53;32.38;;;12.50;;
38581;SDS011;24349;53.720;10.014;2023-02-12T09:23:18;33.72;;;12.73;;
38581;SDS011;24349;53.720;10.014;2023-02-12T09:25:44;32.60;;;11.98;;
38581;SDS011;24349;53.720;10.014;2023-02-12T09:28:11;30.08;;;11.68;;
38581;SDS011;24349;53.720;10.014;2023-02-12T09:30:38;36.22;;;12.85;;
38581;SDS011;24349;53.720;10.014;2023-02-12T09:33:05;33.53;;;12.88;;
38581;SDS011;24349;53.720;10.014;2023-02-12T09:35:35;31.70;;;12.15;;
38581;SDS011;24349;53.720;10.014;2023-02-12T09:38:01;27.80;;;12.65;;
38581;SDS011;24349;53.720;10.014;2023-02-12T09:40:45;25.90;;;11.18;;
38581;SDS011;24349;53.720;10.014;2023-02-12T09:43:33;26.30;;;10.93;;
38581;SDS011;24349;53.720;10.014;2023-02-12T09:48:42;24.60;;;10.75;;
38581;SDS011;24349;53.720;10.014;2023-02-12T09:51:11;32.20;;;11.55;;
38581;SDS011;24349;53.720;10.014;2023-02-12T09:53:42;28.65;;;11.68;;
38581;SDS011;24349;53.720;10.014;2023-02-12T09:56:13;38.08;;;13.35;;
38581;SDS011;24349;53.720;10.014;2023-02-12T09:58:53;33.90;;;12.43;;
38581;SDS011;24349;53.720;10.014;2023-02-12T10:01:22;31.55;;;12.75;;
38581;SDS011;24349;53.720;10.014;2023-02-12T10:03:49;26.08;;;12.30;;
38581;SDS011;24349;53.720;10.014;2023-02-12T10:06:18;23.92;;;10.55;;
38581;SDS011;24349;53.720;10.014;2023-02-12T10:11:33;30.40;;;12.07;;
38581;SDS011;24349;53.720;10.014;2023-02-12T10:17:16;22.58;;;10.57;;
38581;SDS011;24349;53.720;10.014;2023-02-12T10:25:50;23.55;;;9.77;;
38581;SDS011;24349;53.720;10.014;2023-02-12T10:28:37;18.50;;;8.95;;
38581;SDS011;24349;53.720;10.014;2023-02-12T10:31:28;20.55;;;9.77;;
38581;SDS011;24349;53.720;10.014;2023-02-12T10:33:58;24.15;;;10.48;;
38581;SDS011;24349;53.720;10.014;2023-02-12T10:41:37;22.90;;;11.00;;
38581;SDS011;24349;53.720;10.014;2023-02-12T10:44:16;19.77;;;10.18;;
38581;SDS011;24349;53.720;10.014;2023-02-12T10:46:42;24.77;;;10.82;;
38581;SDS011;24349;53.720;10.014;2023-02-12T10:49:09;25.80;;;11.68;;
38581;SDS011;24349;53.720;10.014;2023-02-12T10:59:44;19.63;;;10.15;;
38581;SDS011;24349;53.720;10.014;2023-02-12T11:02:19;23.48;;;10.88;;
38581;SDS011;24349;53.720;10.014;2023-02-12T11:04:51;26.27;;;11.63;;
38581;SDS011;24349;53.720;10.014;2023-02-12T11:07:18;29.58;;;12.77;;
38581;SDS011;24349;53.720;10.014;2023-02-12T11:09:45;26.05;;;11.63;;
38581;SDS011;24349;53.720;10.014;2023-02-12T11:12:19;26.58;;;11.75;;
38581;SDS011;24349;53.720;10.014;2023-02-12T11:14:55;21.05;;;11.38;;
38581;SDS011;24349;53.720;10.014;2023-02-12T11:17:24;26.13;;;12.40;;
38581;SDS011;24349;53.720;10.014;2023-02-12T11:20:07;25.30;;;11.30;;
38581;SDS011;24349;53.720;10.014;2023-02-12T11:25:20;40.05;;;13.98;;
38581;SDS011;24349;53.720;10.014;2023-02-12T11:28:00;28.23;;;12.70;;
38581;SDS011;24349;53.720;10.014;2023-02-12T11:33:28;24.15;;;11.07;;
38581;SDS011;24349;53.720;10.014;2023-02-12T11:38:39;25.48;;;11.65;;
38581;SDS011;24349;53.720;10.014;2023-02-12T11:41:23;28.52;;;10.43;;
38581;SDS011;24349;53.720;10.014;2023-02-12T11:44:10;20.63;;;10.60;;
38581;SDS011;24349;53.720;10.014;2023-02-12T11:46:57;17.45;;;9.63;;
38581;SDS011;24349;53.720;10.014;2023-02-12T11:49:30;20.85;;;9.40;;
38581;SDS011;24349;53.720;10.014;2023-02-12T11:51:59;19.60;;;9.60;;
38581;SDS011;24349;53.720;10.014;2023-02-12T11:54:27;16.83;;;8.93;;
38581;SDS011;24349;53.720;10.014;2023-02-12T11:57:05;25.40;;;9.80;;
38581;SDS011;24349;53.720;10.014;2023-02-12T11:59:34;16.10;;;8.32;;
38581;SDS011;24349;53.720;10.014;2023-02-12T12:02:04;15.53;;;8.03;;
38581;SDS011;24349;53.720;10.014;2023-02-12T12:04:36;17.25;;;7.93;;
38581;SDS011;24349;53.720;10.014;2023-02-12T12:07:08;13.75;;;6.30;;
38581;SDS011;24349;53.720;10.014;2023-02-12T12:09:43;13.98;;;6.13;;
38581;SDS011;24349;53.720;10.014;2023-02-12T12:14:53;8.45;;;4.25;;
38581;SDS011;24349;53.720;10.014;2023-02-12T12:18:07;10.63;;;4.40;;
38581;SDS011;24349;53.720;10.014;2023-02-12T12:20:53;15.07;;;5.57;;
38581;SDS011;24349;53.720;10.014;2023-02-12T12:23:29;7.22;;;3.45;;
38581;SDS011;24349;53.720;10.014;2023-02-12T12:26:21;8.43;;;3.60;;
38581;SDS011;24349;53.720;10.014;2023-02-12T12:31:44;6.70;;;2.78;;
38581;SDS011;24349;53.720;10.014;2023-02-12T12:34:13;6.57;;;2.80;;
38581;SDS011;24349;53.720;10.014;2023-02-12T12:36:59;5.15;;;2.20;;
38581;SDS011;24349;53.720;10.014;2023-02-12T12:50:37;5.32;;;2.33;;
38581;SDS011;24349;53.720;10.014;2023-02-12T12:53:41;4.45;;;2.33;;
38581;SDS011;24349;53.720;10.014;2023-02-12T12:56:30;5.88;;;2.83;;
38581;SDS011;24349;53.720;10.014;2023-02-12T13:01:48;8.95;;;3.60;;
38581;SDS011;24349;53.720;10.014;2023-02-12T13:09:47;6.22;;;3.50;;
38581;SDS011;24349;53.720;10.014;2023-02-12T13:15:15;5.63;;;2.90;;
38581;SDS011;24349;53.720;10.014;2023-02-12T13:17:53;8.15;;;3.83;;
38581;SDS011;24349;53.720;10.014;2023-02-12T13:20:37;7.43;;;3.80;;
38581;SDS011;24349;53.720;10.014;2023-02-12T13:28:43;6.82;;;3.67;;
38581;SDS011;24349;53.720;10.014;2023-02-12T13:31:19;7.93;;;4.07;;
38581;SDS011;24349;53.720;10.014;2023-02-12T13:33:50;7.88;;;4.10;;
38581;SDS011;24349;53.720;10.014;2023-02-12T13:36:19;8.55;;;4.68;;
38581;SDS011;24349;53.720;10.014;2023-02-12T13:39:11;14.30;;;9.98;;
38581;SDS011;24349;53.720;10.014;2023-02-12T13:41:53;8.95;;;6.82;;
38581;SDS011;24349;53.720;10.014;2023-02-12T13:44:26;7.97;;;4.65;;
38581;SDS011;24349;53.720;10.014;2023-02-12T13:47:16;8.43;;;5.25;;
38581;SDS011;24349;53.720;10.014;2023-02-12T13:50:22;8.02;;;5.10;;
38581;SDS011;24349;53.720;10.014;2023-02-12T13:52:58;7.07;;;4.30;;
38581;SDS011;24349;53.720;10.014;2023-02-12T13:55:28;7.03;;;4.07;;
38581;SDS011;24349;53.720;10.014;2023-02-12T14:01:33;6.35;;;3.30;;
38581;SDS011;24349;53.720;10.014;2023-02-12T14:04:21;7.65;;;3.88;;
38581;SDS011;24349;53.720;10.014;2023-02-12T14:07:18;6.72;;;3.75;;
38581;SDS011;24349;53.720;10.014;2023-02-12T14:14:49;6.93;;;3.97;;
38581;SDS011;24349;53.720;10.014;2023-02-12T14:17:38;6.28;;;3.55;;
38581;SDS011;24349;53.720;10.014;2023-02-12T14:20:07;7.35;;;4.25;;
38581;SDS011;24349;53.720;10.014;2023-02-12T14:27:47;5.90;;;3.70;;
38581;SDS011;24349;53.720;10.014;2023-02-12T14:37:57;6.00;;;3.22;;
38581;SDS011;24349;53.720;10.014;2023-02-12T14:40:47;5.82;;;3.20;;
38581;SDS011;24349;53.720;10.014;2023-02-12T14:45:52;5.40;;;3.72;;
38581;SDS011;24349;53.720;10.014;2023-02-12T14:51:34;5.32;;;3.00;;
38581;SDS011;24349;53.720;10.014;2023-02-12T14:57:05;4.80;;;2.92;;
38581;SDS011;24349;53.720;10.014;2023-02-12T14:59:37;5.28;;;3.28;;
38581;SDS011;24349;53.720;10.014;2023-02-12T15:02:08;4.72;;;2.50;;
38581;SDS011;24349;53.720;10.014;2023-02-12T15:04:44;6.03;;;4.13;;
38581;SDS011;24349;53.720;10.014;2023-02-12T15:07:12;4.93;;;3.03;;
38581;SDS011;24349;53.720;10.014;2023-02-12T15:09:51;6.03;;;4.55;;
38581;SDS011;24349;53.720;10.014;2023-02-12T15:13:05;6.75;;;4.18;;
38581;SDS011;24349;53.720;10.014;2023-02-12T15:15:43;5.28;;;3.70;;
38581;SDS011;24349;53.720;10.014;2023-02-12T15:18:25;5.72;;;3.83;;
38581;SDS011;24349;53.720;10.014;2023-02-12T15:21:15;6.75;;;4.40;;
38581;SDS011;24349;53.720;10.014;2023-02-12T15:23:59;10.02;;;7.30;;
38581;SDS011;24349;53.720;10.014;2023-02-12T15:26:29;8.88;;;6.28;;
38581;SDS011;24349;53.720;10.014;2023-02-12T15:28:58;14.05;;;11.32;;
38581;SDS011;24349;53.720;10.014;2023-02-12T15:31:25;9.90;;;7.25;;
38581;SDS011;24349;53.720;10.014;2023-02-12T15:33:54;10.85;;;7.53;;
38581;SDS011;24349;53.720;10.014;2023-02-12T15:36:22;11.43;;;8.23;;
38581;SDS011;24349;53.720;10.014;2023-02-12T15:39:00;12.13;;;8.82;;
38581;SDS011;24349;53.720;10.014;2023-02-12T15:43:56;10.18;;;7.15;;
38581;SDS011;24349;53.720;10.014;2023-02-12T15:46:23;10.63;;;7.18;;
38581;SDS011;24349;53.720;10.014;2023-02-12T15:48:49;8.60;;;6.38;;
38581;SDS011;24349;53.720;10.014;2023-02-12T15:53:52;9.77;;;7.28;;
38581;SDS011;24349;53.720;10.014;2023-02-12T15:56:20;9.13;;;6.53;;
38581;SDS011;24349;53.720;10.014;2023-02-12T15:58:58;9.88;;;6.80;;
38581;SDS011;24349;53.720;10.014;2023-02-12T16:01:27;8.90;;;6.40;;
38581;SDS011;24349;53.720;10.014;2023-02-12T16:03:56;10.65;;;7.63;;
38581;SDS011;24349;53.720;10.014;2023-02-12T16:06:30;8.60;;;6.15;;
38581;SDS011;24349;53.720;10.014;2023-02-12T16:11:59;8.95;;;5.75;;
38581;SDS011;24349;53.720;10.014;2023-02-12T16:14:32;12.05;;;7.95;;
38581;SDS011;24349;53.720;10.014;2023-02-12T16:19:54;14.57;;;9.10;;
38581;SDS011;24349;53.720;10.014;2023-02-12T16:22:26;10.88;;;7.57;;
38581;SDS011;24349;53.720;10.014;2023-02-12T16:25:01;12.77;;;8.00;;
38581;SDS011;24349;53.720;10.014;2023-02-12T16:27:30;14.20;;;9.13;;
38581;SDS011;24349;53.720;10.014;2023-02-12T16:29:59;9.98;;;6.03;;
38581;SDS011;24349;53.720;10.014;2023-02-12T16:32:38;11.45;;;7.72;;
38581;SDS011;24349;53.720;10.014;2023-02-12T16:35:21;10.40;;;7.25;;
38581;SDS011;24349;53.720;10.014;2023-02-12T16:37:51;10.25;;;6.32;;
38581;SDS011;24349;53.720;10.014;2023-02-12T16:40:36;12.13;;;6.97;;
38581;SDS011;24349;53.720;10.014;2023-02-12T16:43:04;12.32;;;6.97;;
38581;SDS011;24349;53.720;10.014;2023-02-12T16:45:47;10.68;;;6.10;;
38581;SDS011;24349;53.720;10.014;2023-02-12T16:48:18;11.00;;;7.35;;
38581;SDS011;24349;53.720;10.014;2023-02-12T16:50:51;12.45;;;7.55;;
38581;SDS011;24349;53.720;10.014;2023-02-12T16:55:58;11.45;;;7.22;;
38581;SDS011;24349;53.720;10.014;2023-02-12T16:58:26;13.75;;;8.25;;
38581;SDS011;24349;53.720;10.014;2023-02-12T17:00:52;11.27;;;7.15;;
38581;SDS011;24349;53.720;10.014;2023-02-12T17:03:21;14.25;;;8.70;;
38581;SDS011;24349;53.720;10.014;2023-02-12T17:05:48;17.75;;;9.98;;
38581;SDS011;24349;53.720;10.014;2023-02-12T17:08:16;24.30;;;12.30;;
38581;SDS011;24349;53.720;10.014;2023-02-12T17:10:45;20.15;;;11.80;;